Terminal Aerodrome Forecast
Issued by NWS Twin Cities, MN

Home | Current Version | Previous Version | Text Only | Print | Product List | Glossary Off
Versions: 1 2 3 4 5 6 7 8 9 10 11 12 13 14 15

000
FTUS43 KMPX 222215 AAA
TAFEAU
TAF AMD
KEAU 222215Z 2222/2318 20008KT P6SM VCSH OVC050
      TEMPO 2222/2224 2SM -SN BKN035
     FM230000 17005KT P6SM OVC090
     FM230900 VRB03KT P6SM SKC=

USA.gov is the U.S. government's official web portal to all federal, state and local government web resources and services.